sensor_id;sensor_type;location;lat;lon;timestamp;P1;durP1;ratioP1;P2;durP2;ratioP2
30681;SDS011;17439;48.092;11.842;2022-08-19T00:00:43;7.90;;;3.58;;
30681;SDS011;17439;48.092;11.842;2022-08-19T00:03:28;4.85;;;3.50;;
30681;SDS011;17439;48.092;11.842;2022-08-19T00:06:14;4.78;;;3.25;;
30681;SDS011;17439;48.092;11.842;2022-08-19T00:09:03;5.78;;;3.00;;
30681;SDS011;17439;48.092;11.842;2022-08-19T00:11:51;4.82;;;3.30;;
30681;SDS011;17439;48.092;11.842;2022-08-19T00:14:38;3.53;;;2.88;;
30681;SDS011;17439;48.092;11.842;2022-08-19T00:17:24;3.30;;;2.58;;
30681;SDS011;17439;48.092;11.842;2022-08-19T00:20:11;3.70;;;2.55;;
30681;SDS011;17439;48.092;11.842;2022-08-19T00:22:59;2.90;;;2.42;;
30681;SDS011;17439;48.092;11.842;2022-08-19T00:25:44;4.30;;;2.53;;
30681;SDS011;17439;48.092;11.842;2022-08-19T00:28:33;2.97;;;2.47;;
30681;SDS011;17439;48.092;11.842;2022-08-19T00:31:20;4.65;;;2.90;;
30681;SDS011;17439;48.092;11.842;2022-08-19T00:34:06;3.03;;;2.40;;
30681;SDS011;17439;48.092;11.842;2022-08-19T00:36:52;3.75;;;2.58;;
30681;SDS011;17439;48.092;11.842;2022-08-19T00:39:37;3.40;;;2.47;;
30681;SDS011;17439;48.092;11.842;2022-08-19T00:42:22;3.72;;;2.65;;
30681;SDS011;17439;48.092;11.842;2022-08-19T00:45:09;2.63;;;2.08;;
30681;SDS011;17439;48.092;11.842;2022-08-19T00:47:57;3.47;;;2.42;;
30681;SDS011;17439;48.092;11.842;2022-08-19T00:50:43;2.40;;;2.15;;
30681;SDS011;17439;48.092;11.842;2022-08-19T00:53:36;4.85;;;2.28;;
30681;SDS011;17439;48.092;11.842;2022-08-19T00:56:21;2.42;;;2.13;;
30681;SDS011;17439;48.092;11.842;2022-08-19T00:59:07;5.40;;;2.30;;
30681;SDS011;17439;48.092;11.842;2022-08-19T01:01:53;3.08;;;1.95;;
30681;SDS011;17439;48.092;11.842;2022-08-19T01:04:39;3.00;;;1.95;;
30681;SDS011;17439;48.092;11.842;2022-08-19T01:07:27;2.53;;;2.00;;
30681;SDS011;17439;48.092;11.842;2022-08-19T01:10:20;2.65;;;1.83;;
30681;SDS011;17439;48.092;11.842;2022-08-19T01:13:09;2.67;;;1.90;;
30681;SDS011;17439;48.092;11.842;2022-08-19T01:15:56;2.60;;;1.98;;
30681;SDS011;17439;48.092;11.842;2022-08-19T01:18:46;2.58;;;1.95;;
30681;SDS011;17439;48.092;11.842;2022-08-19T01:21:32;3.10;;;2.20;;
30681;SDS011;17439;48.092;11.842;2022-08-19T01:24:22;2.63;;;2.22;;
30681;SDS011;17439;48.092;11.842;2022-08-19T01:27:08;2.15;;;1.70;;
30681;SDS011;17439;48.092;11.842;2022-08-19T01:29:54;3.50;;;2.53;;
30681;SDS011;17439;48.092;11.842;2022-08-19T01:32:41;3.20;;;2.17;;
30681;SDS011;17439;48.092;11.842;2022-08-19T01:35:30;3.10;;;2.40;;
30681;SDS011;17439;48.092;11.842;2022-08-19T01:38:23;2.63;;;1.92;;
30681;SDS011;17439;48.092;11.842;2022-08-19T01:41:11;2.08;;;1.73;;
30681;SDS011;17439;48.092;11.842;2022-08-19T01:43:57;2.35;;;1.98;;
30681;SDS011;17439;48.092;11.842;2022-08-19T01:47:02;2.22;;;1.80;;
30681;SDS011;17439;48.092;11.842;2022-08-19T01:49:47;2.60;;;1.90;;
30681;SDS011;17439;48.092;11.842;2022-08-19T01:52:34;2.25;;;1.80;;
30681;SDS011;17439;48.092;11.842;2022-08-19T01:55:21;2.85;;;2.03;;
30681;SDS011;17439;48.092;11.842;2022-08-19T01:58:14;2.03;;;1.83;;
30681;SDS011;17439;48.092;11.842;2022-08-19T02:01:04;2.20;;;1.52;;
30681;SDS011;17439;48.092;11.842;2022-08-19T02:03:50;5.43;;;1.70;;
30681;SDS011;17439;48.092;11.842;2022-08-19T02:06:40;2.63;;;1.90;;
30681;SDS011;17439;48.092;11.842;2022-08-19T02:09:26;2.20;;;2.00;;
30681;SDS011;17439;48.092;11.842;2022-08-19T02:12:11;2.17;;;1.90;;
30681;SDS011;17439;48.092;11.842;2022-08-19T02:14:58;3.55;;;2.75;;
30681;SDS011;17439;48.092;11.842;2022-08-19T02:17:44;3.97;;;2.47;;
30681;SDS011;17439;48.092;11.842;2022-08-19T02:20:29;2.30;;;1.65;;
30681;SDS011;17439;48.092;11.842;2022-08-19T02:23:16;2.15;;;1.80;;
30681;SDS011;17439;48.092;11.842;2022-08-19T02:26:01;2.55;;;2.30;;
30681;SDS011;17439;48.092;11.842;2022-08-19T02:28:47;1.85;;;1.58;;
30681;SDS011;17439;48.092;11.842;2022-08-19T02:31:32;2.22;;;1.90;;
30681;SDS011;17439;48.092;11.842;2022-08-19T02:34:17;2.05;;;1.55;;
30681;SDS011;17439;48.092;11.842;2022-08-19T02:37:03;2.60;;;2.00;;
30681;SDS011;17439;48.092;11.842;2022-08-19T02:39:48;1.77;;;1.67;;
30681;SDS011;17439;48.092;11.842;2022-08-19T02:42:34;1.75;;;1.50;;
30681;SDS011;17439;48.092;11.842;2022-08-19T02:45:20;2.63;;;1.73;;
30681;SDS011;17439;48.092;11.842;2022-08-19T02:48:06;3.03;;;2.20;;
30681;SDS011;17439;48.092;11.842;2022-08-19T02:51:05;1.80;;;1.70;;
30681;SDS011;17439;48.092;11.842;2022-08-19T02:53:50;3.00;;;1.70;;
30681;SDS011;17439;48.092;11.842;2022-08-19T02:56:37;2.50;;;1.77;;
30681;SDS011;17439;48.092;11.842;2022-08-19T02:59:24;2.65;;;2.15;;
30681;SDS011;17439;48.092;11.842;2022-08-19T03:02:09;2.97;;;1.80;;
30681;SDS011;17439;48.092;11.842;2022-08-19T03:04:54;7.20;;;1.83;;
30681;SDS011;17439;48.092;11.842;2022-08-19T03:07:39;2.25;;;2.00;;
30681;SDS011;17439;48.092;11.842;2022-08-19T03:10:24;2.40;;;1.75;;
30681;SDS011;17439;48.092;11.842;2022-08-19T03:13:13;4.20;;;1.95;;
30681;SDS011;17439;48.092;11.842;2022-08-19T03:16:00;2.42;;;1.88;;
30681;SDS011;17439;48.092;11.842;2022-08-19T03:18:50;2.10;;;1.60;;
30681;SDS011;17439;48.092;11.842;2022-08-19T03:21:36;3.13;;;2.22;;
30681;SDS011;17439;48.092;11.842;2022-08-19T03:24:22;2.20;;;1.73;;
30681;SDS011;17439;48.092;11.842;2022-08-19T03:27:07;1.90;;;1.70;;
30681;SDS011;17439;48.092;11.842;2022-08-19T03:29:53;1.98;;;1.80;;
30681;SDS011;17439;48.092;11.842;2022-08-19T03:32:38;1.85;;;1.65;;
30681;SDS011;17439;48.092;11.842;2022-08-19T03:35:29;1.90;;;1.50;;
30681;SDS011;17439;48.092;11.842;2022-08-19T03:38:14;1.70;;;1.45;;
30681;SDS011;17439;48.092;11.842;2022-08-19T03:41:03;2.60;;;1.40;;
30681;SDS011;17439;48.092;11.842;2022-08-19T03:43:50;1.90;;;1.60;;
30681;SDS011;17439;48.092;11.842;2022-08-19T03:46:36;3.92;;;1.70;;
30681;SDS011;17439;48.092;11.842;2022-08-19T03:49:27;2.17;;;1.67;;
30681;SDS011;17439;48.092;11.842;2022-08-19T03:52:14;1.60;;;1.48;;
30681;SDS011;17439;48.092;11.842;2022-08-19T03:55:00;1.70;;;1.52;;
30681;SDS011;17439;48.092;11.842;2022-08-19T03:57:45;2.22;;;1.70;;
30681;SDS011;17439;48.092;11.842;2022-08-19T04:00:31;2.45;;;1.98;;
30681;SDS011;17439;48.092;11.842;2022-08-19T04:03:16;1.65;;;1.40;;
30681;SDS011;17439;48.092;11.842;2022-08-19T04:06:14;1.48;;;1.38;;
30681;SDS011;17439;48.092;11.842;2022-08-19T04:09:03;2.30;;;1.70;;
30681;SDS011;17439;48.092;11.842;2022-08-19T04:11:51;2.90;;;1.75;;
30681;SDS011;17439;48.092;11.842;2022-08-19T04:14:38;1.65;;;1.52;;
30681;SDS011;17439;48.092;11.842;2022-08-19T04:17:24;2.63;;;1.77;;
30681;SDS011;17439;48.092;11.842;2022-08-19T04:20:09;2.30;;;1.80;;
30681;SDS011;17439;48.092;11.842;2022-08-19T04:22:56;1.90;;;1.70;;
30681;SDS011;17439;48.092;11.842;2022-08-19T04:25:43;2.22;;;1.58;;
30681;SDS011;17439;48.092;11.842;2022-08-19T04:28:29;1.25;;;1.15;;
30681;SDS011;17439;48.092;11.842;2022-08-19T04:31:15;3.90;;;1.60;;
30681;SDS011;17439;48.092;11.842;2022-08-19T04:34:06;2.13;;;1.83;;
30681;SDS011;17439;48.092;11.842;2022-08-19T04:36:54;1.58;;;1.48;;
30681;SDS011;17439;48.092;11.842;2022-08-19T04:39:41;1.98;;;1.77;;
30681;SDS011;17439;48.092;11.842;2022-08-19T04:42:26;3.25;;;1.45;;
30681;SDS011;17439;48.092;11.842;2022-08-19T04:45:14;2.25;;;1.90;;
30681;SDS011;17439;48.092;11.842;2022-08-19T04:48:01;2.30;;;1.90;;
30681;SDS011;17439;48.092;11.842;2022-08-19T04:51:08;1.75;;;1.50;;
30681;SDS011;17439;48.092;11.842;2022-08-19T04:56:40;2.95;;;1.38;;
30681;SDS011;17439;48.092;11.842;2022-08-19T04:59:25;3.95;;;1.85;;
30681;SDS011;17439;48.092;11.842;2022-08-19T05:02:10;2.63;;;1.67;;
30681;SDS011;17439;48.092;11.842;2022-08-19T05:04:57;1.70;;;1.42;;
30681;SDS011;17439;48.092;11.842;2022-08-19T05:07:43;1.83;;;1.67;;
30681;SDS011;17439;48.092;11.842;2022-08-19T05:10:28;2.20;;;1.98;;
30681;SDS011;17439;48.092;11.842;2022-08-19T05:13:14;2.63;;;2.20;;
30681;SDS011;17439;48.092;11.842;2022-08-19T05:16:01;2.63;;;1.83;;
30681;SDS011;17439;48.092;11.842;2022-08-19T05:18:47;1.95;;;1.73;;
30681;SDS011;17439;48.092;11.842;2022-08-19T05:21:33;3.10;;;2.08;;
30681;SDS011;17439;48.092;11.842;2022-08-19T05:24:20;2.03;;;1.63;;
30681;SDS011;17439;48.092;11.842;2022-08-19T05:27:08;2.72;;;1.67;;
30681;SDS011;17439;48.092;11.842;2022-08-19T05:29:53;4.20;;;1.73;;
30681;SDS011;17439;48.092;11.842;2022-08-19T05:32:38;2.78;;;1.60;;
30681;SDS011;17439;48.092;11.842;2022-08-19T05:35:25;2.95;;;1.67;;
30681;SDS011;17439;48.092;11.842;2022-08-19T05:38:10;2.42;;;2.20;;
30681;SDS011;17439;48.092;11.842;2022-08-19T05:40:56;2.95;;;1.70;;
30681;SDS011;17439;48.092;11.842;2022-08-19T05:43:42;2.92;;;1.70;;
30681;SDS011;17439;48.092;11.842;2022-08-19T05:46:28;2.05;;;1.75;;
30681;SDS011;17439;48.092;11.842;2022-08-19T05:49:14;2.97;;;1.77;;
30681;SDS011;17439;48.092;11.842;2022-08-19T05:52:04;2.33;;;2.05;;
30681;SDS011;17439;48.092;11.842;2022-08-19T05:54:52;2.30;;;1.98;;
30681;SDS011;17439;48.092;11.842;2022-08-19T05:57:38;2.47;;;1.83;;
30681;SDS011;17439;48.092;11.842;2022-08-19T06:00:24;2.42;;;2.00;;
30681;SDS011;17439;48.092;11.842;2022-08-19T06:03:09;3.20;;;2.05;;
30681;SDS011;17439;48.092;11.842;2022-08-19T06:05:56;2.25;;;1.90;;
30681;SDS011;17439;48.092;11.842;2022-08-19T06:08:42;3.40;;;1.77;;
30681;SDS011;17439;48.092;11.842;2022-08-19T06:14:23;2.45;;;2.00;;
30681;SDS011;17439;48.092;11.842;2022-08-19T06:17:12;2.38;;;2.15;;
30681;SDS011;17439;48.092;11.842;2022-08-19T06:19:57;3.28;;;2.10;;
30681;SDS011;17439;48.092;11.842;2022-08-19T06:22:44;3.42;;;2.20;;
30681;SDS011;17439;48.092;11.842;2022-08-19T06:28:17;2.20;;;1.73;;
30681;SDS011;17439;48.092;11.842;2022-08-19T06:31:05;2.97;;;2.05;;
30681;SDS011;17439;48.092;11.842;2022-08-19T06:33:51;2.63;;;2.10;;
30681;SDS011;17439;48.092;11.842;2022-08-19T06:36:39;2.50;;;2.20;;
30681;SDS011;17439;48.092;11.842;2022-08-19T06:39:28;2.85;;;2.17;;
30681;SDS011;17439;48.092;11.842;2022-08-19T06:42:16;2.38;;;1.77;;
30681;SDS011;17439;48.092;11.842;2022-08-19T06:45:02;3.47;;;2.25;;
30681;SDS011;17439;48.092;11.842;2022-08-19T06:47:53;3.45;;;2.05;;
30681;SDS011;17439;48.092;11.842;2022-08-19T06:50:39;3.17;;;2.08;;
30681;SDS011;17439;48.092;11.842;2022-08-19T06:53:25;2.83;;;2.08;;
30681;SDS011;17439;48.092;11.842;2022-08-19T06:56:14;2.83;;;1.80;;
30681;SDS011;17439;48.092;11.842;2022-08-19T07:01:51;2.30;;;2.10;;
30681;SDS011;17439;48.092;11.842;2022-08-19T07:04:38;5.47;;;3.13;;
30681;SDS011;17439;48.092;11.842;2022-08-19T07:07:26;6.78;;;2.58;;
30681;SDS011;17439;48.092;11.842;2022-08-19T07:10:12;4.97;;;2.03;;
30681;SDS011;17439;48.092;11.842;2022-08-19T07:12:57;3.75;;;2.28;;
30681;SDS011;17439;48.092;11.842;2022-08-19T07:15:42;3.47;;;2.20;;
30681;SDS011;17439;48.092;11.842;2022-08-19T07:18:28;4.50;;;2.75;;
30681;SDS011;17439;48.092;11.842;2022-08-19T07:21:31;4.32;;;3.17;;
30681;SDS011;17439;48.092;11.842;2022-08-19T07:24:22;3.28;;;2.70;;
30681;SDS011;17439;48.092;11.842;2022-08-19T07:27:09;6.10;;;3.10;;
30681;SDS011;17439;48.092;11.842;2022-08-19T07:29:59;4.78;;;3.20;;
30681;SDS011;17439;48.092;11.842;2022-08-19T07:32:45;8.05;;;4.65;;
30681;SDS011;17439;48.092;11.842;2022-08-19T07:35:34;9.27;;;5.20;;
30681;SDS011;17439;48.092;11.842;2022-08-19T07:38:19;6.57;;;5.47;;
30681;SDS011;17439;48.092;11.842;2022-08-19T07:41:05;7.95;;;5.07;;
30681;SDS011;17439;48.092;11.842;2022-08-19T07:43:51;7.45;;;5.45;;
30681;SDS011;17439;48.092;11.842;2022-08-19T07:46:38;7.28;;;5.25;;
30681;SDS011;17439;48.092;11.842;2022-08-19T07:49:25;8.15;;;5.47;;
30681;SDS011;17439;48.092;11.842;2022-08-19T07:52:10;6.80;;;4.88;;
30681;SDS011;17439;48.092;11.842;2022-08-19T07:54:56;6.53;;;4.50;;
30681;SDS011;17439;48.092;11.842;2022-08-19T07:57:41;8.20;;;5.43;;
30681;SDS011;17439;48.092;11.842;2022-08-19T08:00:47;7.07;;;4.78;;
30681;SDS011;17439;48.092;11.842;2022-08-19T08:03:35;7.90;;;5.68;;
30681;SDS011;17439;48.092;11.842;2022-08-19T08:06:21;7.82;;;5.80;;
30681;SDS011;17439;48.092;11.842;2022-08-19T08:09:07;7.70;;;5.45;;
30681;SDS011;17439;48.092;11.842;2022-08-19T08:11:57;7.32;;;5.15;;
30681;SDS011;17439;48.092;11.842;2022-08-19T08:14:53;9.05;;;6.10;;
30681;SDS011;17439;48.092;11.842;2022-08-19T08:17:41;6.88;;;4.90;;
30681;SDS011;17439;48.092;11.842;2022-08-19T08:20:35;6.50;;;4.85;;
30681;SDS011;17439;48.092;11.842;2022-08-19T08:23:21;7.65;;;5.47;;
30681;SDS011;17439;48.092;11.842;2022-08-19T08:26:07;8.88;;;6.40;;
30681;SDS011;17439;48.092;11.842;2022-08-19T08:28:53;8.82;;;6.25;;
30681;SDS011;17439;48.092;11.842;2022-08-19T08:31:41;7.90;;;5.80;;
30681;SDS011;17439;48.092;11.842;2022-08-19T08:34:28;7.95;;;5.63;;
30681;SDS011;17439;48.092;11.842;2022-08-19T08:37:13;8.63;;;6.13;;
30681;SDS011;17439;48.092;11.842;2022-08-19T08:40:02;9.63;;;5.85;;
30681;SDS011;17439;48.092;11.842;2022-08-19T08:46:25;6.68;;;4.97;;
30681;SDS011;17439;48.092;11.842;2022-08-19T08:52:29;6.10;;;5.05;;
30681;SDS011;17439;48.092;11.842;2022-08-19T08:55:19;7.97;;;5.80;;
30681;SDS011;17439;48.092;11.842;2022-08-19T08:58:11;9.48;;;6.55;;
30681;SDS011;17439;48.092;11.842;2022-08-19T09:01:01;8.30;;;5.70;;
30681;SDS011;17439;48.092;11.842;2022-08-19T09:03:47;9.77;;;6.30;;
30681;SDS011;17439;48.092;11.842;2022-08-19T09:06:40;8.55;;;5.93;;
30681;SDS011;17439;48.092;11.842;2022-08-19T09:09:47;6.97;;;5.30;;
30681;SDS011;17439;48.092;11.842;2022-08-19T09:12:48;9.80;;;6.75;;
30681;SDS011;17439;48.092;11.842;2022-08-19T09:15:45;7.93;;;6.03;;
30681;SDS011;17439;48.092;11.842;2022-08-19T09:18:40;9.48;;;6.40;;
30681;SDS011;17439;48.092;11.842;2022-08-19T09:21:27;7.55;;;5.70;;
30681;SDS011;17439;48.092;11.842;2022-08-19T09:24:17;8.50;;;6.00;;
30681;SDS011;17439;48.092;11.842;2022-08-19T09:27:02;8.68;;;5.90;;
30681;SDS011;17439;48.092;11.842;2022-08-19T09:30:03;7.65;;;5.82;;
30681;SDS011;17439;48.092;11.842;2022-08-19T09:32:49;8.95;;;5.72;;
30681;SDS011;17439;48.092;11.842;2022-08-19T09:35:36;7.32;;;5.15;;
30681;SDS011;17439;48.092;11.842;2022-08-19T09:38:37;9.13;;;6.72;;
30681;SDS011;17439;48.092;11.842;2022-08-19T09:41:27;8.18;;;6.22;;
30681;SDS011;17439;48.092;11.842;2022-08-19T09:44:13;9.93;;;6.40;;
30681;SDS011;17439;48.092;11.842;2022-08-19T09:46:58;8.77;;;5.55;;
30681;SDS011;17439;48.092;11.842;2022-08-19T09:49:44;9.27;;;5.78;;
30681;SDS011;17439;48.092;11.842;2022-08-19T09:52:29;7.07;;;5.90;;
30681;SDS011;17439;48.092;11.842;2022-08-19T09:55:16;7.18;;;5.53;;
30681;SDS011;17439;48.092;11.842;2022-08-19T09:58:02;7.03;;;5.22;;
30681;SDS011;17439;48.092;11.842;2022-08-19T10:00:47;8.70;;;5.65;;
30681;SDS011;17439;48.092;11.842;2022-08-19T10:03:35;9.13;;;6.22;;
30681;SDS011;17439;48.092;11.842;2022-08-19T10:06:22;7.07;;;5.30;;
30681;SDS011;17439;48.092;11.842;2022-08-19T10:09:28;6.35;;;4.50;;
30681;SDS011;17439;48.092;11.842;2022-08-19T10:12:18;6.68;;;5.03;;
30681;SDS011;17439;48.092;11.842;2022-08-19T10:15:05;6.10;;;4.57;;
30681;SDS011;17439;48.092;11.842;2022-08-19T10:17:50;6.93;;;5.25;;
30681;SDS011;17439;48.092;11.842;2022-08-19T10:20:39;5.55;;;4.88;;
30681;SDS011;17439;48.092;11.842;2022-08-19T10:23:24;6.95;;;4.75;;
30681;SDS011;17439;48.092;11.842;2022-08-19T10:26:10;6.05;;;4.40;;
30681;SDS011;17439;48.092;11.842;2022-08-19T10:28:56;6.80;;;4.30;;
30681;SDS011;17439;48.092;11.842;2022-08-19T10:31:43;5.75;;;3.92;;
30681;SDS011;17439;48.092;11.842;2022-08-19T10:34:46;5.75;;;4.43;;
30681;SDS011;17439;48.092;11.842;2022-08-19T10:37:33;6.53;;;4.88;;
30681;SDS011;17439;48.092;11.842;2022-08-19T10:40:19;6.57;;;3.80;;
30681;SDS011;17439;48.092;11.842;2022-08-19T10:43:05;5.35;;;4.13;;
30681;SDS011;17439;48.092;11.842;2022-08-19T10:45:54;4.90;;;4.07;;
30681;SDS011;17439;48.092;11.842;2022-08-19T10:48:40;4.97;;;3.88;;
30681;SDS011;17439;48.092;11.842;2022-08-19T10:51:26;4.57;;;3.87;;
30681;SDS011;17439;48.092;11.842;2022-08-19T10:54:12;5.72;;;4.90;;
30681;SDS011;17439;48.092;11.842;2022-08-19T10:56:58;4.72;;;3.75;;
30681;SDS011;17439;48.092;11.842;2022-08-19T10:59:43;6.50;;;4.20;;
30681;SDS011;17439;48.092;11.842;2022-08-19T11:02:29;8.52;;;4.72;;
30681;SDS011;17439;48.092;11.842;2022-08-19T11:05:14;5.70;;;3.92;;
30681;SDS011;17439;48.092;11.842;2022-08-19T11:08:00;5.15;;;3.80;;
30681;SDS011;17439;48.092;11.842;2022-08-19T11:10:51;5.45;;;3.70;;
30681;SDS011;17439;48.092;11.842;2022-08-19T11:13:38;7.13;;;4.40;;
30681;SDS011;17439;48.092;11.842;2022-08-19T11:16:26;4.60;;;3.85;;
30681;SDS011;17439;48.092;11.842;2022-08-19T11:19:11;7.63;;;4.07;;
30681;SDS011;17439;48.092;11.842;2022-08-19T11:21:57;4.65;;;3.83;;
30681;SDS011;17439;48.092;11.842;2022-08-19T11:24:44;4.88;;;3.88;;
30681;SDS011;17439;48.092;11.842;2022-08-19T11:27:29;5.57;;;3.60;;
30681;SDS011;17439;48.092;11.842;2022-08-19T11:30:15;5.05;;;4.15;;
30681;SDS011;17439;48.092;11.842;2022-08-19T11:33:00;4.57;;;3.47;;
30681;SDS011;17439;48.092;11.842;2022-08-19T11:35:46;5.78;;;3.78;;
30681;SDS011;17439;48.092;11.842;2022-08-19T11:38:31;4.90;;;4.03;;
30681;SDS011;17439;48.092;11.842;2022-08-19T11:41:18;6.05;;;4.22;;
30681;SDS011;17439;48.092;11.842;2022-08-19T11:44:05;4.22;;;3.45;;
30681;SDS011;17439;48.092;11.842;2022-08-19T11:46:51;5.18;;;4.15;;
30681;SDS011;17439;48.092;11.842;2022-08-19T11:49:36;4.15;;;3.35;;
30681;SDS011;17439;48.092;11.842;2022-08-19T11:52:22;4.22;;;3.50;;
30681;SDS011;17439;48.092;11.842;2022-08-19T11:55:07;3.60;;;3.17;;
30681;SDS011;17439;48.092;11.842;2022-08-19T11:57:53;5.20;;;4.05;;
30681;SDS011;17439;48.092;11.842;2022-08-19T12:00:39;5.85;;;4.30;;
30681;SDS011;17439;48.092;11.842;2022-08-19T12:03:27;4.53;;;3.58;;
30681;SDS011;17439;48.092;11.842;2022-08-19T12:06:13;4.47;;;3.78;;
30681;SDS011;17439;48.092;11.842;2022-08-19T12:09:04;4.75;;;3.08;;
30681;SDS011;17439;48.092;11.842;2022-08-19T12:11:51;4.20;;;3.25;;
30681;SDS011;17439;48.092;11.842;2022-08-19T12:14:36;4.18;;;3.03;;
30681;SDS011;17439;48.092;11.842;2022-08-19T12:17:25;5.80;;;3.42;;
30681;SDS011;17439;48.092;11.842;2022-08-19T12:20:12;4.50;;;3.60;;
30681;SDS011;17439;48.092;11.842;2022-08-19T12:22:58;3.88;;;3.33;;
30681;SDS011;17439;48.092;11.842;2022-08-19T12:25:44;3.47;;;2.97;;
30681;SDS011;17439;48.092;11.842;2022-08-19T12:28:31;6.30;;;4.63;;
30681;SDS011;17439;48.092;11.842;2022-08-19T12:31:17;10.98;;;6.30;;
30681;SDS011;17439;48.092;11.842;2022-08-19T12:34:02;8.50;;;6.15;;
30681;SDS011;17439;48.092;11.842;2022-08-19T12:36:48;8.98;;;5.72;;
30681;SDS011;17439;48.092;11.842;2022-08-19T12:39:34;7.80;;;5.40;;
30681;SDS011;17439;48.092;11.842;2022-08-19T12:42:21;8.25;;;5.30;;
30681;SDS011;17439;48.092;11.842;2022-08-19T12:45:06;4.75;;;3.85;;
30681;SDS011;17439;48.092;11.842;2022-08-19T12:47:52;5.75;;;3.90;;
30681;SDS011;17439;48.092;11.842;2022-08-19T12:50:39;5.32;;;4.20;;
30681;SDS011;17439;48.092;11.842;2022-08-19T12:53:26;7.63;;;3.92;;
30681;SDS011;17439;48.092;11.842;2022-08-19T12:56:12;3.78;;;2.72;;
30681;SDS011;17439;48.092;11.842;2022-08-19T12:59:00;4.00;;;2.80;;
30681;SDS011;17439;48.092;11.842;2022-08-19T13:01:47;4.13;;;2.78;;
30681;SDS011;17439;48.092;11.842;2022-08-19T13:04:32;3.17;;;2.38;;
30681;SDS011;17439;48.092;11.842;2022-08-19T13:07:19;2.72;;;2.00;;
30681;SDS011;17439;48.092;11.842;2022-08-19T13:10:07;2.40;;;1.92;;
30681;SDS011;17439;48.092;11.842;2022-08-19T13:12:54;1.92;;;1.73;;
30681;SDS011;17439;48.092;11.842;2022-08-19T13:15:40;2.45;;;1.60;;
30681;SDS011;17439;48.092;11.842;2022-08-19T13:18:26;1.42;;;1.20;;
30681;SDS011;17439;48.092;11.842;2022-08-19T13:21:12;1.60;;;1.10;;
30681;SDS011;17439;48.092;11.842;2022-08-19T13:23:57;5.45;;;0.98;;
30681;SDS011;17439;48.092;11.842;2022-08-19T13:26:43;2.53;;;1.20;;
30681;SDS011;17439;48.092;11.842;2022-08-19T13:29:28;1.35;;;1.10;;
30681;SDS011;17439;48.092;11.842;2022-08-19T13:32:13;1.13;;;1.00;;
30681;SDS011;17439;48.092;11.842;2022-08-19T13:35:03;1.10;;;0.90;;
30681;SDS011;17439;48.092;11.842;2022-08-19T13:37:49;5.13;;;0.85;;
30681;SDS011;17439;48.092;11.842;2022-08-19T13:40:34;1.08;;;0.88;;
30681;SDS011;17439;48.092;11.842;2022-08-19T13:43:23;1.63;;;0.80;;
30681;SDS011;17439;48.092;11.842;2022-08-19T13:46:11;1.17;;;0.80;;
30681;SDS011;17439;48.092;11.842;2022-08-19T13:48:57;0.70;;;0.70;;
30681;SDS011;17439;48.092;11.842;2022-08-19T13:51:43;1.00;;;0.70;;
30681;SDS011;17439;48.092;11.842;2022-08-19T13:54:28;0.75;;;0.75;;
30681;SDS011;17439;48.092;11.842;2022-08-19T13:57:14;3.83;;;0.77;;
30681;SDS011;17439;48.092;11.842;2022-08-19T13:59:59;1.50;;;0.82;;
30681;SDS011;17439;48.092;11.842;2022-08-19T14:02:46;0.93;;;0.70;;
30681;SDS011;17439;48.092;11.842;2022-08-19T14:05:32;1.60;;;0.93;;
30681;SDS011;17439;48.092;11.842;2022-08-19T14:08:18;0.60;;;0.60;;
30681;SDS011;17439;48.092;11.842;2022-08-19T14:11:03;0.93;;;0.70;;
30681;SDS011;17439;48.092;11.842;2022-08-19T14:13:50;1.25;;;0.95;;
30681;SDS011;17439;48.092;11.842;2022-08-19T14:16:35;2.35;;;0.73;;
30681;SDS011;17439;48.092;11.842;2022-08-19T14:19:20;2.38;;;0.90;;
30681;SDS011;17439;48.092;11.842;2022-08-19T14:22:07;0.68;;;0.68;;
30681;SDS011;17439;48.092;11.842;2022-08-19T14:24:54;1.15;;;0.80;;
30681;SDS011;17439;48.092;11.842;2022-08-19T14:27:40;0.85;;;0.85;;
30681;SDS011;17439;48.092;11.842;2022-08-19T14:30:27;1.10;;;0.82;;
30681;SDS011;17439;48.092;11.842;2022-08-19T14:33:14;0.95;;;0.85;;
30681;SDS011;17439;48.092;11.842;2022-08-19T14:36:00;0.90;;;0.90;;
30681;SDS011;17439;48.092;11.842;2022-08-19T14:38:45;3.10;;;1.05;;
30681;SDS011;17439;48.092;11.842;2022-08-19T14:41:30;2.40;;;1.52;;
30681;SDS011;17439;48.092;11.842;2022-08-19T14:44:16;2.30;;;1.48;;
30681;SDS011;17439;48.092;11.842;2022-08-19T14:47:02;1.27;;;1.00;;
30681;SDS011;17439;48.092;11.842;2022-08-19T14:49:48;0.70;;;0.63;;
30681;SDS011;17439;48.092;11.842;2022-08-19T14:52:33;1.05;;;0.95;;
30681;SDS011;17439;48.092;11.842;2022-08-19T14:55:19;1.10;;;0.70;;
30681;SDS011;17439;48.092;11.842;2022-08-19T14:58:04;3.03;;;1.52;;
30681;SDS011;17439;48.092;11.842;2022-08-19T15:00:52;1.40;;;1.25;;
30681;SDS011;17439;48.092;11.842;2022-08-19T15:03:38;1.67;;;1.23;;
30681;SDS011;17439;48.092;11.842;2022-08-19T15:06:23;1.33;;;1.17;;
30681;SDS011;17439;48.092;11.842;2022-08-19T15:09:10;2.05;;;1.10;;
30681;SDS011;17439;48.092;11.842;2022-08-19T15:11:55;1.50;;;1.40;;
30681;SDS011;17439;48.092;11.842;2022-08-19T15:14:40;2.30;;;1.80;;
30681;SDS011;17439;48.092;11.842;2022-08-19T15:17:26;2.35;;;1.70;;
30681;SDS011;17439;48.092;11.842;2022-08-19T15:20:29;1.85;;;1.35;;
30681;SDS011;17439;48.092;11.842;2022-08-19T15:23:16;2.15;;;1.40;;
30681;SDS011;17439;48.092;11.842;2022-08-19T15:26:02;2.83;;;0.95;;
30681;SDS011;17439;48.092;11.842;2022-08-19T15:28:47;2.28;;;1.60;;
30681;SDS011;17439;48.092;11.842;2022-08-19T15:31:33;3.40;;;1.65;;
30681;SDS011;17439;48.092;11.842;2022-08-19T15:34:20;1.65;;;1.27;;
30681;SDS011;17439;48.092;11.842;2022-08-19T15:37:06;1.42;;;1.20;;
30681;SDS011;17439;48.092;11.842;2022-08-19T15:39:51;1.90;;;1.70;;
30681;SDS011;17439;48.092;11.842;2022-08-19T15:42:37;1.70;;;1.60;;
30681;SDS011;17439;48.092;11.842;2022-08-19T15:45:22;1.98;;;1.73;;
30681;SDS011;17439;48.092;11.842;2022-08-19T15:48:07;2.58;;;1.92;;
30681;SDS011;17439;48.092;11.842;2022-08-19T15:50:53;2.17;;;1.60;;
30681;SDS011;17439;48.092;11.842;2022-08-19T15:53:39;1.75;;;1.45;;
30681;SDS011;17439;48.092;11.842;2022-08-19T15:56:24;1.58;;;1.48;;
30681;SDS011;17439;48.092;11.842;2022-08-19T15:59:11;1.40;;;1.30;;
30681;SDS011;17439;48.092;11.842;2022-08-19T16:01:56;1.73;;;1.40;;
30681;SDS011;17439;48.092;11.842;2022-08-19T16:04:42;2.30;;;1.63;;
30681;SDS011;17439;48.092;11.842;2022-08-19T16:07:27;2.00;;;1.63;;
30681;SDS011;17439;48.092;11.842;2022-08-19T16:10:13;2.65;;;2.00;;
30681;SDS011;17439;48.092;11.842;2022-08-19T16:13:11;2.17;;;1.63;;
30681;SDS011;17439;48.092;11.842;2022-08-19T16:15:57;1.75;;;1.20;;
30681;SDS011;17439;48.092;11.842;2022-08-19T16:18:42;1.55;;;1.40;;
30681;SDS011;17439;48.092;11.842;2022-08-19T16:21:28;1.95;;;1.45;;
30681;SDS011;17439;48.092;11.842;2022-08-19T16:24:14;1.45;;;1.33;;
30681;SDS011;17439;48.092;11.842;2022-08-19T16:27:01;4.20;;;2.30;;
30681;SDS011;17439;48.092;11.842;2022-08-19T16:29:47;3.45;;;2.30;;
30681;SDS011;17439;48.092;11.842;2022-08-19T16:32:32;3.17;;;2.28;;
30681;SDS011;17439;48.092;11.842;2022-08-19T16:35:18;2.85;;;2.35;;
30681;SDS011;17439;48.092;11.842;2022-08-19T16:38:03;3.03;;;2.50;;
30681;SDS011;17439;48.092;11.842;2022-08-19T16:40:49;2.92;;;2.47;;
30681;SDS011;17439;48.092;11.842;2022-08-19T16:43:35;3.60;;;2.83;;
30681;SDS011;17439;48.092;11.842;2022-08-19T16:46:20;3.33;;;2.50;;
30681;SDS011;17439;48.092;11.842;2022-08-19T16:49:10;2.63;;;2.40;;